createdAt,value
2017-09-24T00:00:25.022Z,83.50
2017-09-24T00:02:54.114Z,83.60
2017-09-24T00:05:23.190Z,83.60
2017-09-24T00:07:51.525Z,83.50
2017-09-24T00:10:19.842Z,83.50
2017-09-24T00:12:48.175Z,83.50
2017-09-24T00:15:17.254Z,83.40
2017-09-24T00:17:45.563Z,83.40
2017-09-24T00:20:13.864Z,83.40
2017-09-24T00:22:42.166Z,83.50
2017-09-24T00:25:10.492Z,83.60
2017-09-24T00:27:39.558Z,83.70
2017-09-24T00:30:07.864Z,83.70
2017-09-24T00:32:36.943Z,84.20
2017-09-24T00:35:05.274Z,83.70
2017-09-24T00:37:33.572Z,83.70
2017-09-24T00:40:01.887Z,83.70
2017-09-24T00:42:30.248Z,83.50
2017-09-24T00:44:58.584Z,83.50
2017-09-24T00:47:27.677Z,83.30
2017-09-24T00:49:56.766Z,83.40
2017-09-24T00:52:25.066Z,83.40
2017-09-24T00:54:54.190Z,83.40
2017-09-24T00:57:22.510Z,83.40
2017-09-24T00:59:50.826Z,83.40
2017-09-24T01:02:19.895Z,83.60
2017-09-24T01:04:48.215Z,83.50
2017-09-24T01:07:16.536Z,83.50
2017-09-24T01:09:44.856Z,83.60
2017-09-24T01:12:13.184Z,83.60
2017-09-24T01:14:41.507Z,83.70
2017-09-24T01:17:09.840Z,83.60
2017-09-24T01:19:38.193Z,83.80
2017-09-24T01:22:07.278Z,84.00
2017-09-24T01:24:35.607Z,84.00
2017-09-24T01:27:03.913Z,83.90
2017-09-24T01:29:32.241Z,83.90
2017-09-24T01:32:01.326Z,83.80
2017-09-24T01:34:29.628Z,83.80
2017-09-24T01:36:57.982Z,83.60
2017-09-24T01:39:26.306Z,83.90
2017-09-24T01:41:54.613Z,84.00
2017-09-24T01:44:22.936Z,84.00
2017-09-24T01:46:52.016Z,84.10
2017-09-24T01:49:20.348Z,84.10
2017-09-24T01:51:48.684Z,84.20
2017-09-24T01:54:17.001Z,84.30
2017-09-24T01:56:46.089Z,84.50
2017-09-24T01:59:15.176Z,84.60
2017-09-24T02:01:43.506Z,84.60
2017-09-24T02:04:11.822Z,85.50
2017-09-24T02:06:40.147Z,84.90
2017-09-24T02:09:08.483Z,84.90
2017-09-24T02:11:36.778Z,85.00
2017-09-24T02:14:05.094Z,85.10
2017-09-24T02:16:33.407Z,85.20
2017-09-24T02:19:01.727Z,85.30
2017-09-24T02:21:30.058Z,85.30
2017-09-24T02:23:58.389Z,85.40
2017-09-24T02:26:26.699Z,85.40
2017-09-24T02:28:55.766Z,85.60
2017-09-24T02:31:25.593Z,85.70
2017-09-24T02:33:53.903Z,85.70
2017-09-24T02:36:22.204Z,85.70
2017-09-24T02:38:50.533Z,85.80
2017-09-24T02:41:19.630Z,85.90
2017-09-24T02:43:47.936Z,85.90
2017-09-24T02:46:17.024Z,86.20
2017-09-24T02:48:46.101Z,86.20
2017-09-24T02:51:15.275Z,86.10
2017-09-24T02:53:43.591Z,86.40
2017-09-24T02:56:11.942Z,86.60
2017-09-24T02:58:40.262Z,86.40
2017-09-24T03:01:08.571Z,86.80
2017-09-24T03:03:36.884Z,86.90
2017-09-24T03:06:05.188Z,87.00
2017-09-24T03:08:33.559Z,87.10
2017-09-24T03:11:01.878Z,87.40
2017-09-24T03:13:30.978Z,88.00
2017-09-24T03:16:00.056Z,87.90
2017-09-24T03:18:28.364Z,87.90
2017-09-24T03:20:57.455Z,88.90
2017-09-24T03:23:26.530Z,88.30
2017-09-24T03:25:54.838Z,88.10
2017-09-24T03:28:23.940Z,88.20
2017-09-24T03:30:52.285Z,88.20
2017-09-24T03:33:20.593Z,88.30
2017-09-24T03:35:48.946Z,88.40
2017-09-24T03:38:17.248Z,88.80
2017-09-24T03:40:45.583Z,89.00
2017-09-24T03:43:13.933Z,89.20
2017-09-24T03:45:43.088Z,89.40
2017-09-24T03:48:11.403Z,89.40
2017-09-24T03:50:39.735Z,89.50
2017-09-24T03:53:08.058Z,89.60
2017-09-24T03:55:36.374Z,89.50
2017-09-24T03:58:04.667Z,89.50
2017-09-24T04:00:32.999Z,89.60
2017-09-24T04:03:01.322Z,89.90
2017-09-24T04:05:29.632Z,90.00
2017-09-24T04:07:58.003Z,90.10
2017-09-24T04:10:26.322Z,90.10
2017-09-24T04:12:54.634Z,90.10
2017-09-24T04:15:23.731Z,90.10
2017-09-24T04:17:53.562Z,90.20
2017-09-24T04:20:21.889Z,90.20
2017-09-24T04:22:50.210Z,90.20
2017-09-24T04:25:19.312Z,90.40
2017-09-24T04:27:48.431Z,90.40
2017-09-24T04:30:16.751Z,90.40
2017-09-24T04:32:45.056Z,90.40
2017-09-24T04:35:13.369Z,90.40
2017-09-24T04:37:42.458Z,90.30
2017-09-24T04:40:11.574Z,90.40
2017-09-24T04:42:39.886Z,90.40
2017-09-24T04:45:08.218Z,90.40
2017-09-24T04:47:37.332Z,90.40
2017-09-24T04:50:05.633Z,90.40
2017-09-24T04:52:33.952Z,90.30
2017-09-24T04:55:02.286Z,90.30
2017-09-24T04:57:30.605Z,90.50
2017-09-24T04:59:58.950Z,90.50
2017-09-24T05:02:27.270Z,90.50
2017-09-24T05:04:55.605Z,90.50
2017-09-24T05:07:23.920Z,90.40
2017-09-24T05:09:52.287Z,90.50
2017-09-24T05:12:20.645Z,90.50
2017-09-24T05:14:48.965Z,90.50
2017-09-24T05:17:17.289Z,90.60
2017-09-24T05:19:45.605Z,90.70
2017-09-24T05:22:13.930Z,90.70
2017-09-24T05:24:42.279Z,90.70
2017-09-24T05:27:10.595Z,90.90
2017-09-24T05:29:38.935Z,91.10
2017-09-24T05:32:07.258Z,91.30
2017-09-24T05:34:35.577Z,91.50
2017-09-24T05:37:04.662Z,91.70
2017-09-24T05:39:33.737Z,91.90
2017-09-24T05:42:02.092Z,91.80
2017-09-24T05:44:30.411Z,91.80
2017-09-24T05:46:58.741Z,91.80
2017-09-24T05:49:27.093Z,91.80
2017-09-24T05:51:56.189Z,91.80
2017-09-24T05:54:25.277Z,92.00
2017-09-24T05:56:53.609Z,91.80
2017-09-24T05:59:21.935Z,91.80
2017-09-24T06:01:50.329Z,91.80
2017-09-24T06:04:18.675Z,91.80
2017-09-24T06:06:46.992Z,91.80
2017-09-24T06:09:15.335Z,91.80
2017-09-24T06:11:43.648Z,91.60
2017-09-24T06:14:11.979Z,91.70
2017-09-24T06:16:40.300Z,91.60
2017-09-24T06:19:08.617Z,91.60
2017-09-24T06:21:37.720Z,91.50
2017-09-24T06:24:06.815Z,91.40
2017-09-24T06:26:35.937Z,91.40
2017-09-24T06:29:04.249Z,91.30
2017-09-24T06:31:32.581Z,91.30
2017-09-24T06:34:01.689Z,91.20
2017-09-24T06:36:30.763Z,91.10
2017-09-24T06:38:59.100Z,91.10
2017-09-24T06:41:27.456Z,91.20
2017-09-24T06:43:55.776Z,91.20
2017-09-24T06:46:24.102Z,91.00
2017-09-24T06:48:52.435Z,91.00
2017-09-24T06:51:20.769Z,90.80
2017-09-24T06:53:49.853Z,90.70
2017-09-24T06:56:18.208Z,90.70
2017-09-24T06:58:46.543Z,90.70
2017-09-24T07:01:15.646Z,90.50
2017-09-24T07:03:44.011Z,90.50
2017-09-24T07:06:13.112Z,90.40
2017-09-24T07:08:42.180Z,90.50
2017-09-24T07:11:10.501Z,90.50
2017-09-24T07:13:39.595Z,90.20
2017-09-24T07:16:08.669Z,90.10
2017-09-24T07:18:36.990Z,90.10
2017-09-24T07:21:05.320Z,90.10
2017-09-24T07:23:33.649Z,90.00
2017-09-24T07:26:01.982Z,90.00
2017-09-24T07:28:30.320Z,89.80
2017-09-24T07:30:58.661Z,89.40
2017-09-24T07:33:26.980Z,89.10
2017-09-24T07:35:56.092Z,88.60
2017-09-24T07:38:24.428Z,88.60
2017-09-24T07:40:52.806Z,88.00
2017-09-24T07:43:21.143Z,87.80
2017-09-24T07:45:49.493Z,87.60
2017-09-24T07:48:18.609Z,86.30
2017-09-24T07:50:46.944Z,86.30
2017-09-24T07:53:15.262Z,86.20
2017-09-24T07:55:44.376Z,85.80
2017-09-24T07:58:12.702Z,85.60
2017-09-24T08:00:41.040Z,85.50
2017-09-24T08:03:09.394Z,85.10
2017-09-24T08:05:37.728Z,85.00
2017-09-24T08:08:06.068Z,84.50
2017-09-24T08:10:35.171Z,84.00
2017-09-24T08:13:04.246Z,83.60
2017-09-24T08:15:32.564Z,83.50
2017-09-24T08:18:01.658Z,82.70
2017-09-24T08:20:30.762Z,83.50
2017-09-24T08:22:59.086Z,82.70
2017-09-24T08:25:27.407Z,82.60
2017-09-24T08:27:55.744Z,82.10
2017-09-24T08:30:24.106Z,81.50
2017-09-24T08:32:52.447Z,81.10
2017-09-24T08:35:20.779Z,80.90
2017-09-24T08:37:49.120Z,80.60
2017-09-24T08:40:17.441Z,80.10
2017-09-24T08:42:45.753Z,79.90
2017-09-24T08:45:14.168Z,79.60
2017-09-24T08:47:43.250Z,78.70
2017-09-24T08:50:11.580Z,78.70
2017-09-24T08:52:39.892Z,78.50
2017-09-24T08:55:08.226Z,78.10
2017-09-24T08:57:36.617Z,77.60
2017-09-24T09:00:04.944Z,77.60
2017-09-24T09:02:33.259Z,76.50
2017-09-24T09:05:02.349Z,75.50
2017-09-24T09:07:30.673Z,75.50
2017-09-24T09:09:59.014Z,75.90
2017-09-24T09:12:27.337Z,74.80
2017-09-24T09:14:55.680Z,75.40
2017-09-24T09:17:23.995Z,74.70
2017-09-24T09:19:52.329Z,74.30
2017-09-24T09:22:20.665Z,74.30
2017-09-24T09:24:49.051Z,73.90
2017-09-24T09:27:17.381Z,73.50
2017-09-24T09:29:45.726Z,73.40
2017-09-24T09:32:14.151Z,73.00
2017-09-24T09:35:00.347Z,72.80
2017-09-24T09:37:28.667Z,72.70
2017-09-24T09:39:56.977Z,72.60
2017-09-24T09:42:25.334Z,72.40
2017-09-24T09:44:53.665Z,72.50
2017-09-24T09:47:27.742Z,71.80
2017-09-24T09:49:56.093Z,71.70
2017-09-24T09:52:25.165Z,71.50
2017-09-24T09:54:53.518Z,71.30
2017-09-24T09:57:21.863Z,71.20
2017-09-24T09:59:50.216Z,71.00
2017-09-24T10:02:18.535Z,70.40
2017-09-24T10:04:46.855Z,69.70
2017-09-24T10:07:32.856Z,69.80
2017-09-24T10:10:16.733Z,69.60
2017-09-24T10:12:45.050Z,69.30
2017-09-24T10:15:13.372Z,69.00
2017-09-24T10:17:42.444Z,68.30
2017-09-24T10:20:10.771Z,68.20
2017-09-24T10:22:39.119Z,68.20
2017-09-24T10:25:07.449Z,68.20
2017-09-24T10:27:35.759Z,67.60
2017-09-24T10:30:21.917Z,67.80
2017-09-24T10:32:50.247Z,67.20
2017-09-24T10:35:18.567Z,66.60
2017-09-24T10:37:47.652Z,66.20
2017-09-24T10:40:16.742Z,65.90
2017-09-24T10:42:45.071Z,65.90
2017-09-24T10:45:13.384Z,65.80
2017-09-24T10:47:41.709Z,65.90
2017-09-24T10:50:10.821Z,66.00
2017-09-24T10:52:39.141Z,66.80
2017-09-24T10:55:07.453Z,66.10
2017-09-24T10:57:36.561Z,66.60
2017-09-24T11:00:05.643Z,67.10
2017-09-24T11:02:33.967Z,67.10
2017-09-24T11:05:02.300Z,67.70
2017-09-24T11:07:30.628Z,68.00
2017-09-24T11:09:58.952Z,69.30
2017-09-24T11:12:27.282Z,68.80
2017-09-24T11:14:56.363Z,69.50
2017-09-24T11:17:25.457Z,69.70
2017-09-24T11:19:53.769Z,69.70
2017-09-24T11:22:22.094Z,69.90
2017-09-24T11:24:50.429Z,70.00
2017-09-24T11:27:18.736Z,70.20
2017-09-24T11:29:47.048Z,70.10
2017-09-24T11:32:15.379Z,69.90
2017-09-24T11:34:43.693Z,69.70
2017-09-24T11:37:12.008Z,69.50
2017-09-24T11:39:40.316Z,70.00
2017-09-24T11:42:08.638Z,69.10
2017-09-24T11:44:36.968Z,68.80
2017-09-24T11:47:06.024Z,68.10
2017-09-24T11:49:34.350Z,68.00
2017-09-24T11:52:03.443Z,67.80
2017-09-24T11:54:32.546Z,67.50
2017-09-24T11:57:01.666Z,67.10
2017-09-24T11:59:29.977Z,67.10
2017-09-24T12:01:58.294Z,66.60
2017-09-24T12:04:26.615Z,66.10
2017-09-24T12:06:54.927Z,66.00
2017-09-24T12:09:23.254Z,65.70
2017-09-24T12:11:52.337Z,65.20
2017-09-24T12:14:20.666Z,65.20
2017-09-24T12:16:49.001Z,65.70
2017-09-24T12:19:17.318Z,64.50
2017-09-24T12:21:45.631Z,64.30
2017-09-24T12:24:13.950Z,63.90
2017-09-24T12:26:42.298Z,63.30
2017-09-24T12:29:10.602Z,63.20
2017-09-24T12:31:38.941Z,63.10
2017-09-24T12:34:07.287Z,62.90
2017-09-24T12:36:36.370Z,62.80
2017-09-24T12:39:04.692Z,62.70
2017-09-24T12:41:33.011Z,62.80
2017-09-24T12:44:01.337Z,62.70
2017-09-24T12:46:29.692Z,62.50
2017-09-24T12:48:58.003Z,61.80
2017-09-24T12:51:27.130Z,62.00
2017-09-24T12:53:55.465Z,61.10
2017-09-24T12:56:24.542Z,60.90
2017-09-24T12:58:52.875Z,60.90
2017-09-24T13:01:21.194Z,62.00
2017-09-24T13:03:50.291Z,62.50
2017-09-24T13:06:18.637Z,62.50
2017-09-24T13:08:46.936Z,62.20
2017-09-24T13:11:15.255Z,61.90
2017-09-24T13:13:43.580Z,61.40
2017-09-24T13:16:11.903Z,61.90
2017-09-24T13:18:40.228Z,62.00
2017-09-24T13:21:09.294Z,61.70
2017-09-24T13:23:37.612Z,61.60
2017-09-24T13:26:06.711Z,61.10
2017-09-24T13:28:35.801Z,61.20
2017-09-24T13:31:04.880Z,61.50
2017-09-24T13:33:33.248Z,61.50
2017-09-24T13:36:01.561Z,61.20
2017-09-24T13:38:29.884Z,61.20
2017-09-24T13:40:58.209Z,61.30
2017-09-24T13:43:28.125Z,62.50
2017-09-24T13:45:56.447Z,61.70
2017-09-24T13:48:24.770Z,62.20
2017-09-24T13:50:53.097Z,62.40
2017-09-24T13:53:22.184Z,62.60
2017-09-24T13:55:50.497Z,62.60
2017-09-24T13:58:18.825Z,62.70
2017-09-24T14:00:47.139Z,62.80
2017-09-24T14:03:16.203Z,62.10
2017-09-24T14:05:44.522Z,62.00
2017-09-24T14:08:14.763Z,62.00
2017-09-24T14:10:43.062Z,61.90
2017-09-24T14:13:11.351Z,61.80
2017-09-24T14:15:39.732Z,62.00
2017-09-24T14:18:08.038Z,62.00
2017-09-24T14:20:36.327Z,61.90
2017-09-24T14:23:04.667Z,61.90
2017-09-24T14:25:32.967Z,61.80
2017-09-24T14:28:01.282Z,61.50
2017-09-24T14:30:30.364Z,61.10
2017-09-24T14:32:58.727Z,61.10
2017-09-24T14:35:27.038Z,61.00
2017-09-24T14:37:55.361Z,60.90
2017-09-24T14:40:23.663Z,60.80
2017-09-24T14:42:51.982Z,60.60
2017-09-24T14:45:20.309Z,60.40
2017-09-24T14:47:48.615Z,60.40
2017-09-24T14:50:16.914Z,60.40
2017-09-24T14:52:45.240Z,60.40
2017-09-24T14:55:14.324Z,60.30
2017-09-24T14:57:42.634Z,60.30
2017-09-24T15:00:10.936Z,60.00
2017-09-24T15:02:39.258Z,59.80
2017-09-24T15:05:07.575Z,59.60
2017-09-24T15:07:35.898Z,59.80
2017-09-24T15:10:04.219Z,59.80
2017-09-24T15:12:33.298Z,59.10
2017-09-24T15:15:01.632Z,59.00
2017-09-24T15:17:29.952Z,58.90
2017-09-24T15:19:58.300Z,59.00
2017-09-24T15:22:26.619Z,58.80
2017-09-24T15:24:54.958Z,58.50
2017-09-24T15:27:23.299Z,58.30
2017-09-24T15:29:51.653Z,58.40
2017-09-24T15:32:19.992Z,58.50
2017-09-24T15:34:49.093Z,58.20
2017-09-24T15:37:18.178Z,58.30
2017-09-24T15:39:47.288Z,58.40
2017-09-24T15:42:16.450Z,58.50
2017-09-24T15:44:44.762Z,58.50
2017-09-24T15:47:13.870Z,58.50
2017-09-24T15:49:42.969Z,58.40
2017-09-24T15:52:12.069Z,58.50
2017-09-24T15:54:41.190Z,58.80
2017-09-24T15:57:09.496Z,58.70
2017-09-24T15:59:37.807Z,58.80
2017-09-24T16:02:06.134Z,58.90
2017-09-24T16:04:34.466Z,58.80
2017-09-24T16:07:02.792Z,58.80
2017-09-24T16:09:31.307Z,58.90
2017-09-24T16:11:59.627Z,59.10
2017-09-24T16:14:27.953Z,59.20
2017-09-24T16:16:56.268Z,58.90
2017-09-24T16:19:24.588Z,58.80
2017-09-24T16:21:53.668Z,59.40
2017-09-24T16:24:21.991Z,59.40
2017-09-24T16:26:50.304Z,59.50
2017-09-24T16:29:19.204Z,59.70
2017-09-24T16:31:47.501Z,59.80
2017-09-24T16:34:15.825Z,59.90
2017-09-24T16:36:44.148Z,60.00
2017-09-24T16:39:12.461Z,60.30
2017-09-24T16:41:41.547Z,61.30
2017-09-24T16:44:09.925Z,60.50
2017-09-24T16:46:38.269Z,60.60
2017-09-24T16:49:06.600Z,60.80
2017-09-24T16:51:35.699Z,61.10
2017-09-24T16:54:04.013Z,61.20
2017-09-24T16:56:32.328Z,61.50
2017-09-24T16:59:00.647Z,61.80
2017-09-24T17:01:28.963Z,62.00
2017-09-24T17:03:57.298Z,62.20
2017-09-24T17:06:25.602Z,62.40
2017-09-24T17:08:54.679Z,62.70
2017-09-24T17:11:22.997Z,62.70
2017-09-24T17:13:52.075Z,63.00
2017-09-24T17:16:20.397Z,63.80
2017-09-24T17:18:48.729Z,63.30
2017-09-24T17:21:17.825Z,64.60
2017-09-24T17:23:46.153Z,63.70
2017-09-24T17:26:14.479Z,64.10
2017-09-24T17:28:42.807Z,64.40
2017-09-24T17:31:11.139Z,64.70
2017-09-24T17:33:39.450Z,64.90
2017-09-24T17:36:07.763Z,65.00
2017-09-24T17:38:36.137Z,65.20
2017-09-24T17:41:04.458Z,65.60
2017-09-24T17:43:32.781Z,65.80
2017-09-24T17:46:01.115Z,66.20
2017-09-24T17:48:29.428Z,66.50
2017-09-24T17:50:57.753Z,66.60
2017-09-24T17:53:26.067Z,67.00
2017-09-24T17:55:54.396Z,67.20
2017-09-24T17:58:23.553Z,67.60
2017-09-24T18:00:51.863Z,67.60
2017-09-24T18:03:20.952Z,67.90
2017-09-24T18:05:49.287Z,67.80
2017-09-24T18:08:17.595Z,68.00
2017-09-24T18:10:45.915Z,68.10
2017-09-24T18:13:15.034Z,68.50
2017-09-24T18:15:44.097Z,68.80
2017-09-24T18:18:12.397Z,68.70
2017-09-24T18:20:41.479Z,69.10
2017-09-24T18:23:09.795Z,69.00
2017-09-24T18:25:38.881Z,69.70
2017-09-24T18:28:07.967Z,70.00
2017-09-24T18:30:36.284Z,69.90
2017-09-24T18:33:04.584Z,70.10
2017-09-24T18:35:32.886Z,70.40
2017-09-24T18:38:01.195Z,70.70
2017-09-24T18:40:29.531Z,70.90
2017-09-24T18:42:57.852Z,71.40
2017-09-24T18:45:26.296Z,71.30
2017-09-24T18:47:54.607Z,71.60
2017-09-24T18:50:23.119Z,71.70
2017-09-24T18:52:51.437Z,71.90
2017-09-24T18:55:19.878Z,72.10
2017-09-24T18:57:48.986Z,72.40
2017-09-24T19:00:18.071Z,72.50
2017-09-24T19:02:46.415Z,72.50
2017-09-24T19:05:15.089Z,72.50
2017-09-24T19:07:43.683Z,72.50
2017-09-24T19:10:12.030Z,72.60
2017-09-24T19:12:41.099Z,72.90
2017-09-24T19:15:09.465Z,72.90
2017-09-24T19:17:37.823Z,73.00
2017-09-24T19:20:06.428Z,73.10
2017-09-24T19:22:36.547Z,73.40
2017-09-24T19:25:05.223Z,73.40
2017-09-24T19:27:33.915Z,73.40
2017-09-24T19:30:02.499Z,73.60
2017-09-24T19:32:30.911Z,73.70
2017-09-24T19:34:59.286Z,73.80
2017-09-24T19:37:27.707Z,73.90
2017-09-24T19:39:57.111Z,74.20
2017-09-24T19:42:25.802Z,74.30
2017-09-24T19:44:54.885Z,74.50
2017-09-24T19:47:23.537Z,74.70
2017-09-24T19:49:52.152Z,75.60
2017-09-24T19:52:20.557Z,75.00
2017-09-24T19:54:48.930Z,75.10
2017-09-24T19:57:17.238Z,75.70
2017-09-24T19:59:46.320Z,75.40
2017-09-24T20:02:14.635Z,75.40
2017-09-24T20:04:43.801Z,75.80
2017-09-24T20:07:12.220Z,75.80
2017-09-24T20:09:41.339Z,76.10
2017-09-24T20:12:09.666Z,76.10
2017-09-24T20:14:37.973Z,76.20
2017-09-24T20:17:07.073Z,76.30
2017-09-24T20:19:36.158Z,76.20
2017-09-24T20:22:04.488Z,76.20
2017-09-24T20:24:32.814Z,76.10
2017-09-24T20:27:01.118Z,76.20
2017-09-24T20:29:30.254Z,76.50
2017-09-24T20:31:58.555Z,76.40
2017-09-24T20:34:26.881Z,76.40
2017-09-24T20:36:55.961Z,76.80
2017-09-24T20:39:24.261Z,76.80
2017-09-24T20:41:53.356Z,77.30
2017-09-24T20:44:23.271Z,77.40
2017-09-24T20:46:51.597Z,77.30
2017-09-24T20:49:19.914Z,78.10
2017-09-24T20:51:48.218Z,77.50
2017-09-24T20:54:17.320Z,77.60
2017-09-24T20:56:46.410Z,77.80
2017-09-24T20:59:14.736Z,77.80
2017-09-24T21:01:43.058Z,77.90
2017-09-24T21:04:11.365Z,77.90
2017-09-24T21:06:40.448Z,78.00
2017-09-24T21:09:08.752Z,78.00
2017-09-24T21:11:37.834Z,78.40
2017-09-24T21:14:06.151Z,78.30
2017-09-24T21:16:34.459Z,78.40
2017-09-24T21:19:02.766Z,78.50
2017-09-24T21:21:31.784Z,78.50
2017-09-24T21:24:00.855Z,79.20
2017-09-24T21:26:29.201Z,78.50
2017-09-24T21:28:57.497Z,78.50
2017-09-24T21:31:25.811Z,78.60
2017-09-24T21:33:55.638Z,78.80
2017-09-24T21:36:23.945Z,78.80
2017-09-24T21:38:53.024Z,78.80
2017-09-24T21:41:21.361Z,78.80
2017-09-24T21:43:49.669Z,78.90
2017-09-24T21:46:18.032Z,79.00
2017-09-24T21:48:46.336Z,79.00
2017-09-24T21:51:14.629Z,79.00
2017-09-24T21:53:42.956Z,79.10
2017-09-24T21:56:11.250Z,78.90
2017-09-24T21:58:39.555Z,79.40
2017-09-24T22:01:07.935Z,79.40
2017-09-24T22:03:36.241Z,79.50
2017-09-24T22:06:05.320Z,79.70
2017-09-24T22:08:33.625Z,79.70
2017-09-24T22:11:02.153Z,79.60
2017-09-24T22:13:30.466Z,79.70
2017-09-24T22:15:58.804Z,79.70
2017-09-24T22:18:27.122Z,79.80
2017-09-24T22:20:55.437Z,79.80
2017-09-24T22:23:23.750Z,79.70
2017-09-24T22:25:52.052Z,79.90
2017-09-24T22:28:20.372Z,80.00
2017-09-24T22:30:49.467Z,80.20
2017-09-24T22:33:17.793Z,80.20
2017-09-24T22:35:46.096Z,80.30
2017-09-24T22:38:14.418Z,80.60
2017-09-24T22:40:42.745Z,80.70
2017-09-24T22:43:11.059Z,80.80
2017-09-24T22:45:39.372Z,80.80
2017-09-24T22:48:07.707Z,80.80
2017-09-24T22:50:36.003Z,80.80
2017-09-24T22:53:04.318Z,80.90
2017-09-24T22:55:32.758Z,81.00
2017-09-24T22:58:01.066Z,81.20
2017-09-24T23:00:29.422Z,81.00
2017-09-24T23:02:57.721Z,81.20
2017-09-24T23:05:26.032Z,81.30
2017-09-24T23:07:55.101Z,82.30
2017-09-24T23:10:23.430Z,81.60
2017-09-24T23:12:51.739Z,81.60
2017-09-24T23:15:20.075Z,81.50
2017-09-24T23:17:49.154Z,81.80
2017-09-24T23:20:17.502Z,81.90
2017-09-24T23:22:45.802Z,82.00
2017-09-24T23:25:14.129Z,82.00
2017-09-24T23:27:43.237Z,82.30
2017-09-24T23:30:12.337Z,82.50
2017-09-24T23:32:40.665Z,82.40
2017-09-24T23:35:08.973Z,82.40
2017-09-24T23:37:38.795Z,82.80
2017-09-24T23:40:07.103Z,82.80
2017-09-24T23:42:35.416Z,82.80
2017-09-24T23:45:03.724Z,83.00
2017-09-24T23:47:32.063Z,82.90
2017-09-24T23:50:00.363Z,83.70
2017-09-24T23:52:28.705Z,83.10
2017-09-24T23:54:57.783Z,83.20
2017-09-24T23:57:26.101Z,83.30
2017-09-24T23:59:54.411Z,83.40
